Date,TemperatureHighF,TemperatureAvgF,TemperatureLowF,DewpointHighF,DewpointAvgF,DewpointLowF,HumidityHigh,HumidityAvg,HumidityLow,PressureMaxIn,PressureMinIn,WindSpeedMaxMPH,WindSpeedAvgMPH,GustSpeedMaxMPH,PrecipitationSumIn
2013-4-1,60.6,57.6,55.8,59.5,57.3,55.8,100,99,96,29.91,29.83,23,10,28,0.00
2013-4-2,57.9,53.0,47.5,57.0,43.3,34.2,100,71,45,30.16,29.91,23,9,29,0.00
2013-4-3,54.2,50.6,47.9,52.0,42.2,33.8,98,74,48,30.31,30.13,23,9,30,0.00
2013-4-4,64.4,51.7,47.1,63.0,46.0,35.8,100,81,64,30.33,29.79,35,15,39,1.46
2013-4-5,63.0,52.6,45.7,62.8,50.9,45.4,100,94,78,30.02,29.74,37,10,39,0.10
2013-4-6,57.7,51.3,46.5,50.0,44.3,35.0,100,79,50,30.32,30.02,25,10,31,0.00
2013-4-7,66.5,56.3,45.4,56.7,50.9,44.9,100,83,61,30.30,30.19,15,8,17,0.00
2013-4-8,66.8,62.3,58.9,60.9,58.8,55.7,97,89,79,30.23,30.15,20,11,23,0.00
2013-4-9,67.8,63.5,60.5,63.2,61.2,59.2,98,92,83,30.25,30.14,23,12,25,0.00
2013-4-10,68.2,63.1,59.8,63.7,61.7,59.8,100,95,82,30.17,30.04,27,14,31,0.00
2013-4-11,70.1,65.1,61.2,66.7,64.0,60.8,100,96,89,30.06,29.92,23,13,26,0.00
2013-4-12,68.7,65.6,63.1,67.7,65.1,62.5,100,98,95,29.92,29.71,36,16,38,0.35
2013-4-13,65.2,61.4,58.3,64.3,54.5,48.0,100,79,60,30.05,29.77,28,9,30,0.00
2013-4-14,71.5,64.4,58.5,61.2,55.3,49.3,92,74,47,30.14,30.04,14,5,17,0.00
2013-4-15,70.0,65.4,60.6,63.8,60.5,54.4,96,84,71,30.21,30.00,34,10,39,0.35
2013-4-16,73.8,67.4,61.8,66.5,62.2,56.8,100,85,62,30.29,30.19,16,6,18,0.00
2013-4-17,73.6,67.7,61.3,65.0,61.6,58.9,99,82,64,30.26,30.18,13,4,14,0.00
2013-4-18,73.8,69.1,65.3,65.2,62.9,60.4,92,81,67,30.24,30.11,16,7,18,0.00
2013-4-19,72.8,69.0,64.8,69.6,67.2,64.6,99,94,89,30.12,29.91,33,17,38,0.06
2013-4-20,70.4,59.8,53.3,68.9,56.1,48.2,100,88,74,30.28,29.89,34,13,39,0.53
2013-4-21,59.4,55.4,49.4,51.3,45.7,38.7,91,70,58,30.46,30.26,36,16,45,0.00
2013-4-22,55.7,53.7,50.2,55.5,52.4,47.7,100,96,87,30.42,30.15,35,20,40,0.14
2013-4-23,61.5,56.4,53.3,55.5,53.7,51.3,100,91,72,30.20,30.09,31,14,33,0.00
2013-4-24,67.0,60.6,53.6,63.7,57.5,52.7,99,90,76,30.22,30.08,23,8,24,0.00
2013-4-25,67.9,61.3,53.4,64.6,57.6,48.2,99,88,73,30.30,30.08,23,11,26,0.01
2013-4-26,66.9,58.8,51.9,53.1,47.4,35.8,100,70,37,30.41,30.28,23,9,28,0.00
2013-4-27,68.2,61.4,55.2,56.1,48.8,36.5,97,67,33,30.40,30.31,21,9,24,0.00
2013-4-28,69.0,63.3,54.5,58.8,50.3,36.8,86,64,35,30.31,30.15,17,7,20,0.00
2013-4-29,66.3,64.2,61.6,64.0,61.2,56.5,99,90,76,30.15,30.01,22,10,23,0.35
2013-4-30,74.0,66.4,62.0,65.0,62.5,57.5,100,88,64,30.13,30.00,16,6,20,0.00